Gap Mills, West Virginia
Current Conditions -  °F | °C
As of 1:55 PM on Tuesday 27 Jan 2015 (Local Time) from KLWB Reporting Station
Clear Clear  
Wind Chill: 20°   Ceiling: Unl
Heat Index: 29°   Visibility: 10mi
Dew Point: 12°   Wind: 12mph
Humidity: 49%   Direction: 280°W
Pressure: 29.8"   Gusts: 18mph
Location:  37.57°N, 80.41°W
Report Text: KLWB 271855Z AUTO 28010G16KT 10SM CLR M01/M11 A2980 RMK AO2 T10141109
Loading
Personal Weather Stations






























Interactive Weather Map New forecast layout! Learn more

10-Day Weather Forecast

Advertisements
Track Severe Weather on mobile